createdAt,value
2022-10-09T00:02:53.302Z,67.47
2022-10-09T00:05:55.868Z,68.16
2022-10-09T00:09:02.066Z,68.58
2022-10-09T00:12:05.164Z,67.12
2022-10-09T00:15:11.129Z,68.02
2022-10-09T00:18:16.281Z,69.33
2022-10-09T00:21:21.462Z,66.05
2022-10-09T00:24:25.332Z,67.78
2022-10-09T00:27:28.066Z,70.06
2022-10-09T00:30:31.044Z,69.70
2022-10-09T00:33:34.588Z,67.49
2022-10-09T00:36:37.184Z,69.08
2022-10-09T00:39:41.081Z,69.61
2022-10-09T00:42:45.739Z,68.67
2022-10-09T00:45:51.532Z,68.79
2022-10-09T00:49:04.637Z,68.67
2022-10-09T00:52:08.789Z,68.63
2022-10-09T00:55:15.353Z,68.71
2022-10-09T00:58:18.107Z,67.62
2022-10-09T01:01:20.904Z,68.35
2022-10-09T01:04:23.825Z,67.85
2022-10-09T01:07:37.074Z,68.47
2022-10-09T01:10:49.051Z,68.46
2022-10-09T01:13:58.861Z,67.58
2022-10-09T01:17:08.860Z,68.04
2022-10-09T01:20:36.295Z,68.14
2022-10-09T01:23:49.288Z,68.22
2022-10-09T01:27:00.086Z,68.39
2022-10-09T01:30:06.686Z,66.30
2022-10-09T01:33:10.986Z,68.48
2022-10-09T01:36:15.722Z,66.28
2022-10-09T01:39:22.323Z,67.53
2022-10-09T01:42:29.982Z,68.15
2022-10-09T01:45:39.170Z,68.17
2022-10-09T01:48:42.294Z,67.95
2022-10-09T01:51:52.558Z,68.24
2022-10-09T01:55:15.067Z,67.40
2022-10-09T01:58:25.643Z,67.67
2022-10-09T02:01:32.236Z,67.92
2022-10-09T02:04:37.163Z,68.08
2022-10-09T02:07:39.950Z,68.31
2022-10-09T02:10:44.609Z,68.02
2022-10-09T02:13:52.887Z,67.89
2022-10-09T02:17:02.026Z,67.60
2022-10-09T02:20:10.123Z,67.83
2022-10-09T02:23:14.613Z,68.53
2022-10-09T02:26:17.608Z,68.39
2022-10-09T02:29:22.056Z,68.03
2022-10-09T02:32:24.760Z,67.54
2022-10-09T02:35:27.733Z,67.55
2022-10-09T02:38:30.639Z,68.10
2022-10-09T02:41:33.893Z,67.12
2022-10-09T02:44:37.908Z,67.35
2022-10-09T02:47:40.503Z,67.62
2022-10-09T02:50:43.075Z,67.56
2022-10-09T02:53:45.798Z,67.06
2022-10-09T02:56:48.500Z,68.01
2022-10-09T02:59:52.559Z,67.91
2022-10-09T03:02:55.325Z,67.31
2022-10-09T03:06:02.592Z,67.50
2022-10-09T03:09:05.423Z,68.47
2022-10-09T03:12:08.072Z,67.19
2022-10-09T03:15:12.805Z,68.06
2022-10-09T03:18:15.578Z,68.11
2022-10-09T03:21:20.269Z,67.98
2022-10-09T03:24:22.827Z,67.72
2022-10-09T03:27:25.516Z,67.76
2022-10-09T03:30:29.507Z,68.25
2022-10-09T03:33:32.191Z,68.38
2022-10-09T03:36:34.844Z,68.89
2022-10-09T03:39:37.398Z,68.64
2022-10-09T03:42:39.971Z,68.45
2022-10-09T03:45:44.346Z,67.94
2022-10-09T03:48:47.620Z,67.83
2022-10-09T03:51:50.222Z,68.18
2022-10-09T03:54:52.954Z,67.92
2022-10-09T03:57:55.622Z,67.24
2022-10-09T04:00:59.798Z,67.38
2022-10-09T04:04:02.407Z,67.42
2022-10-09T04:07:05.067Z,67.49
2022-10-09T04:10:08.330Z,67.08
2022-10-09T04:13:11.326Z,67.44
2022-10-09T04:16:15.382Z,67.55
2022-10-09T04:19:17.978Z,67.08
2022-10-09T04:22:21.085Z,67.27
2022-10-09T04:25:23.698Z,66.92
2022-10-09T04:28:26.347Z,66.87
2022-10-09T04:31:30.334Z,66.54
2022-10-09T04:34:33.103Z,67.80
2022-10-09T04:37:36.709Z,67.77
2022-10-09T04:40:39.375Z,69.77
2022-10-09T04:43:42.136Z,68.38
2022-10-09T04:46:46.081Z,68.95
2022-10-09T04:49:48.961Z,68.48
2022-10-09T04:52:51.714Z,67.30
2022-10-09T04:55:54.461Z,66.46
2022-10-09T04:58:57.070Z,67.17
2022-10-09T05:02:01.368Z,67.21
2022-10-09T05:05:04.199Z,67.11
2022-10-09T05:08:06.964Z,66.82
2022-10-09T05:11:11.702Z,66.04
2022-10-09T05:14:14.306Z,68.06
2022-10-09T05:17:22.776Z,68.12
2022-10-09T05:20:25.913Z,69.53
2022-10-09T05:23:28.645Z,69.37
2022-10-09T05:26:31.233Z,70.20
2022-10-09T05:29:34.182Z,70.43
2022-10-09T05:32:38.213Z,70.83
2022-10-09T05:35:40.763Z,70.63
2022-10-09T05:38:43.459Z,71.49
2022-10-09T05:41:46.119Z,71.58
2022-10-09T05:44:48.796Z,71.87
2022-10-09T05:47:52.722Z,71.72
2022-10-09T05:50:55.288Z,72.37
2022-10-09T05:53:58.427Z,72.88
2022-10-09T05:57:00.975Z,72.55
2022-10-09T06:00:03.634Z,72.40
2022-10-09T06:03:07.543Z,72.49
2022-10-09T06:06:10.502Z,73.04
2022-10-09T06:09:13.092Z,72.67
2022-10-09T06:12:15.669Z,73.27
2022-10-09T06:15:18.651Z,73.37
2022-10-09T06:18:22.726Z,72.88
2022-10-09T06:21:26.562Z,73.37
2022-10-09T06:24:29.682Z,73.90
2022-10-09T06:27:32.347Z,73.97
2022-10-09T06:30:38.584Z,75.38
2022-10-09T06:33:45.049Z,75.05
2022-10-09T06:36:47.766Z,75.66
2022-10-09T06:39:50.440Z,74.41
2022-10-09T06:42:53.143Z,73.13
2022-10-09T06:45:55.774Z,70.65
2022-10-09T06:49:01.817Z,72.20
2022-10-09T06:52:04.448Z,71.09
2022-10-09T06:55:07.670Z,69.26
2022-10-09T06:58:10.262Z,68.39
2022-10-09T07:01:14.319Z,67.87
2022-10-09T07:04:18.758Z,66.82
2022-10-09T07:07:21.407Z,65.18
2022-10-09T07:10:25.315Z,63.83
2022-10-09T07:13:30.805Z,63.24
2022-10-09T07:16:35.820Z,63.15
2022-10-09T07:19:40.061Z,62.60
2022-10-09T07:22:42.645Z,61.56
2022-10-09T07:25:45.410Z,62.02
2022-10-09T07:28:49.119Z,61.54
2022-10-09T07:31:51.733Z,60.24
2022-10-09T07:34:55.821Z,62.80
2022-10-09T07:37:58.353Z,63.33
2022-10-09T07:41:01.915Z,63.47
2022-10-09T07:44:04.593Z,63.78
2022-10-09T07:47:07.277Z,64.43
2022-10-09T07:50:11.347Z,63.61
2022-10-09T07:53:13.884Z,63.43
2022-10-09T07:56:17.781Z,64.63
2022-10-09T07:59:20.427Z,64.70
2022-10-09T08:02:23.027Z,65.38
2022-10-09T08:05:26.997Z,65.24
2022-10-09T08:08:29.795Z,64.61
2022-10-09T08:11:33.019Z,64.68
2022-10-09T08:14:35.929Z,65.11
2022-10-09T08:17:38.538Z,63.92
2022-10-09T08:20:42.595Z,65.20
2022-10-09T08:23:46.002Z,65.87
2022-10-09T08:26:48.686Z,64.88
2022-10-09T08:29:51.314Z,66.81
2022-10-09T08:32:54.061Z,67.29
2022-10-09T08:36:10.576Z,67.29
2022-10-09T08:39:13.248Z,67.74
2022-10-09T08:42:28.363Z,67.68
2022-10-09T08:45:33.220Z,67.62
2022-10-09T08:48:42.360Z,67.45
2022-10-09T08:51:46.430Z,66.19
2022-10-09T08:54:50.169Z,65.32
2022-10-09T08:57:55.354Z,66.10
2022-10-09T09:01:03.822Z,66.04
2022-10-09T09:04:29.814Z,67.79
2022-10-09T09:07:42.466Z,66.92
2022-10-09T09:10:55.515Z,66.57
2022-10-09T09:14:12.576Z,66.61
2022-10-09T09:17:24.456Z,66.53
2022-10-09T09:20:30.706Z,66.12
2022-10-09T09:23:39.943Z,66.15
2022-10-09T09:26:46.300Z,65.10
2022-10-09T09:29:54.698Z,66.18
2022-10-09T09:33:05.653Z,63.22
2022-10-09T09:36:11.855Z,63.88
2022-10-09T09:42:41.830Z,58.40
2022-10-09T09:45:45.586Z,54.63
2022-10-09T09:48:49.396Z,56.36
2022-10-09T09:51:52.388Z,56.97
2022-10-09T09:54:58.121Z,54.95
2022-10-09T09:58:03.798Z,54.22
2022-10-09T10:01:08.024Z,51.02
2022-10-09T10:04:21.655Z,50.24
2022-10-09T10:07:32.205Z,49.78
2022-10-09T10:10:36.168Z,51.17
2022-10-09T10:13:46.609Z,50.81
2022-10-09T10:16:50.878Z,48.26
2022-10-09T10:19:53.557Z,47.86
2022-10-09T10:22:58.833Z,46.43
2022-10-09T10:26:10.038Z,48.30
2022-10-09T10:29:16.652Z,47.27
2022-10-09T10:32:27.412Z,47.06
2022-10-09T10:35:33.254Z,46.86
2022-10-09T10:38:41.559Z,45.67
2022-10-09T10:41:52.434Z,44.23
2022-10-09T10:45:01.624Z,43.39
2022-10-09T10:48:06.146Z,44.83
2022-10-09T10:51:24.722Z,44.88
2022-10-09T10:54:37.319Z,43.02
2022-10-09T10:57:51.402Z,44.59
2022-10-09T11:01:12.037Z,46.15
2022-10-09T11:04:30.939Z,46.03
2022-10-09T11:07:41.147Z,46.78
2022-10-09T11:10:56.650Z,44.54
2022-10-09T11:14:09.566Z,45.65
2022-10-09T11:17:22.960Z,46.81
2022-10-09T11:20:50.233Z,45.91
2022-10-09T11:24:13.153Z,44.38
2022-10-09T11:27:23.843Z,44.31
2022-10-09T11:30:31.550Z,43.37
2022-10-09T11:33:37.551Z,43.76
2022-10-09T11:36:43.074Z,43.97
2022-10-09T11:39:46.838Z,44.77
2022-10-09T11:42:57.390Z,45.92
2022-10-09T11:46:05.667Z,45.01
2022-10-09T11:49:18.347Z,45.38
2022-10-09T11:52:28.937Z,44.20
2022-10-09T11:55:33.274Z,42.05
2022-10-09T11:58:36.552Z,40.37
2022-10-09T12:01:42.943Z,38.54
2022-10-09T12:04:54.787Z,39.04
2022-10-09T12:08:09.139Z,39.02
2022-10-09T12:11:18.008Z,38.79
2022-10-09T12:14:26.631Z,38.90
2022-10-09T12:17:36.045Z,41.49
2022-10-09T12:20:40.401Z,42.15
2022-10-09T12:23:43.390Z,40.46
2022-10-09T12:26:47.144Z,39.67
2022-10-09T12:29:55.558Z,38.29
2022-10-09T12:33:05.368Z,40.34
2022-10-09T12:36:13.646Z,39.60
2022-10-09T12:39:20.508Z,39.26
2022-10-09T12:42:25.413Z,38.59
2022-10-09T12:45:30.974Z,37.58
2022-10-09T12:48:40.320Z,39.45
2022-10-09T12:51:42.912Z,39.35
2022-10-09T12:54:46.247Z,39.70
2022-10-09T12:57:48.915Z,39.21
2022-10-09T13:00:54.338Z,39.04
2022-10-09T13:04:00.377Z,40.92
2022-10-09T13:07:17.216Z,39.07
2022-10-09T13:10:24.082Z,40.46
2022-10-09T13:13:28.342Z,40.92
2022-10-09T13:16:43.699Z,41.22
2022-10-09T13:19:53.882Z,42.30
2022-10-09T13:22:58.347Z,42.17
2022-10-09T13:26:03.710Z,40.22
2022-10-09T13:29:08.362Z,41.20
2022-10-09T13:32:13.450Z,43.30
2022-10-09T13:35:17.574Z,42.20
2022-10-09T13:38:20.915Z,42.81
2022-10-09T13:41:25.868Z,43.31
2022-10-09T13:44:28.445Z,43.39
2022-10-09T13:47:31.393Z,42.50
2022-10-09T13:50:35.352Z,42.26
2022-10-09T13:53:37.945Z,43.11
2022-10-09T13:56:40.614Z,43.89
2022-10-09T13:59:43.248Z,42.92
2022-10-09T14:02:45.980Z,43.23
2022-10-09T14:05:50.163Z,42.45
2022-10-09T14:08:53.887Z,42.74
2022-10-09T14:11:56.462Z,42.46
2022-10-09T14:14:59.051Z,42.63
2022-10-09T14:18:01.742Z,42.65
2022-10-09T14:21:14.782Z,40.80
2022-10-09T14:24:19.391Z,42.28
2022-10-09T14:27:22.143Z,43.46
2022-10-09T14:30:24.828Z,43.53
2022-10-09T14:33:27.538Z,44.17
2022-10-09T14:36:31.807Z,44.82
2022-10-09T14:39:34.393Z,44.50
2022-10-09T14:42:38.036Z,44.79
2022-10-09T14:45:40.647Z,44.60
2022-10-09T14:48:44.660Z,45.51
2022-10-09T14:51:49.020Z,45.29
2022-10-09T14:54:51.659Z,45.17
2022-10-09T14:57:54.408Z,45.35
2022-10-09T15:00:57.126Z,45.80
2022-10-09T15:04:00.833Z,46.09
2022-10-09T15:07:04.829Z,46.17
2022-10-09T15:10:08.031Z,46.23
2022-10-09T15:13:10.767Z,47.09
2022-10-09T15:16:16.083Z,47.06
2022-10-09T15:19:18.665Z,47.03
2022-10-09T15:22:22.712Z,46.78
2022-10-09T15:25:25.558Z,47.22
2022-10-09T15:28:28.883Z,47.88
2022-10-09T15:31:32.948Z,47.53
2022-10-09T15:34:40.098Z,47.58
2022-10-09T15:37:45.599Z,47.62
2022-10-09T15:40:50.813Z,47.21
2022-10-09T15:43:56.304Z,48.21
2022-10-09T15:46:58.840Z,48.67
2022-10-09T15:50:01.606Z,48.75
2022-10-09T15:53:10.614Z,49.42
2022-10-09T15:56:14.926Z,50.04
2022-10-09T15:59:17.774Z,50.39
2022-10-09T16:02:20.548Z,51.03
2022-10-09T16:05:23.110Z,51.55
2022-10-09T16:08:29.597Z,52.72
2022-10-09T16:11:32.753Z,52.36
2022-10-09T16:14:35.323Z,53.20
2022-10-09T16:17:38.031Z,55.11
2022-10-09T16:20:41.357Z,55.91
2022-10-09T16:23:46.009Z,56.50
2022-10-09T16:26:50.998Z,56.64
2022-10-09T16:29:53.654Z,57.37
2022-10-09T16:32:56.333Z,57.41
2022-10-09T16:36:09.799Z,58.11
2022-10-09T16:39:13.903Z,58.36
2022-10-09T16:42:17.551Z,58.36
2022-10-09T16:45:20.114Z,58.58
2022-10-09T16:48:22.873Z,59.53
2022-10-09T16:51:27.744Z,59.24
2022-10-09T16:54:31.762Z,59.79
2022-10-09T16:57:34.472Z,59.91
2022-10-09T17:00:37.102Z,59.92
2022-10-09T17:03:41.434Z,60.53
2022-10-09T17:06:45.627Z,60.17
2022-10-09T17:09:49.802Z,60.05
2022-10-09T17:12:52.413Z,60.27
2022-10-09T17:15:55.118Z,60.90
2022-10-09T17:18:58.438Z,61.05
2022-10-09T17:22:01.491Z,61.18
2022-10-09T17:25:06.403Z,61.94
2022-10-09T17:28:09.153Z,62.76
2022-10-09T17:31:14.451Z,62.93
2022-10-09T17:34:17.519Z,62.51
2022-10-09T17:37:20.259Z,63.41
2022-10-09T17:40:24.205Z,63.94
2022-10-09T17:43:26.865Z,63.71
2022-10-09T17:46:30.589Z,63.60
2022-10-09T17:49:33.509Z,63.81
2022-10-09T17:52:36.210Z,63.94
2022-10-09T17:55:40.129Z,64.30
2022-10-09T17:59:01.489Z,64.16
2022-10-09T18:02:04.582Z,64.49
2022-10-09T18:05:08.933Z,64.64
2022-10-09T18:08:11.960Z,65.04
2022-10-09T18:11:17.412Z,64.95
2022-10-09T18:14:19.987Z,65.21
2022-10-09T18:17:22.922Z,65.26
2022-10-09T18:20:25.582Z,65.65
2022-10-09T18:23:28.267Z,65.38
2022-10-09T18:26:32.552Z,65.67
2022-10-09T18:29:35.141Z,66.45
2022-10-09T18:32:37.876Z,66.42
2022-10-09T18:35:41.130Z,67.25
2022-10-09T18:38:43.933Z,66.84
2022-10-09T18:41:48.539Z,67.31
2022-10-09T18:44:51.122Z,67.39
2022-10-09T18:47:53.890Z,67.42
2022-10-09T18:50:57.238Z,67.74
2022-10-09T18:54:04.078Z,67.70
2022-10-09T18:57:08.107Z,67.92
2022-10-09T19:00:12.112Z,68.35
2022-10-09T19:03:14.748Z,68.29
2022-10-09T19:06:17.722Z,68.65
2022-10-09T19:09:23.002Z,68.68
2022-10-09T19:12:27.887Z,68.54
2022-10-09T19:15:30.608Z,68.23
2022-10-09T19:18:34.572Z,68.53
2022-10-09T19:21:39.483Z,69.29
2022-10-09T19:24:42.303Z,69.11
2022-10-09T19:27:46.364Z,68.88
2022-10-09T19:30:49.531Z,69.21
2022-10-09T19:33:52.356Z,68.92
2022-10-09T19:36:55.071Z,68.55
2022-10-09T19:39:58.057Z,69.02
2022-10-09T19:43:02.248Z,69.19
2022-10-09T19:46:10.782Z,68.94
2022-10-09T19:49:13.692Z,69.77
2022-10-09T19:52:16.388Z,70.17
2022-10-09T19:55:19.298Z,69.79
2022-10-09T19:58:23.319Z,70.71
2022-10-09T20:01:29.868Z,70.92
2022-10-09T20:04:32.568Z,70.91
2022-10-09T20:07:35.192Z,70.84
2022-10-09T20:10:38.946Z,70.63
2022-10-09T20:13:44.027Z,71.20
2022-10-09T20:16:46.722Z,70.77
2022-10-09T20:19:49.550Z,70.81
2022-10-09T20:22:52.699Z,70.91
2022-10-09T20:26:00.586Z,70.18
2022-10-09T20:29:06.826Z,70.61
2022-10-09T20:32:12.198Z,71.15
2022-10-09T20:35:14.767Z,71.40
2022-10-09T20:38:20.881Z,71.02
2022-10-09T20:41:28.759Z,72.02
2022-10-09T20:44:32.856Z,71.84
2022-10-09T20:47:35.858Z,71.88
2022-10-09T20:50:38.640Z,71.22
2022-10-09T20:53:41.409Z,71.47
2022-10-09T20:56:44.436Z,71.21
2022-10-09T20:59:48.772Z,71.60
2022-10-09T21:02:51.597Z,71.58
2022-10-09T21:05:54.856Z,71.07
2022-10-09T21:08:59.468Z,71.15
2022-10-09T21:12:02.542Z,71.89
2022-10-09T21:15:08.233Z,72.14
2022-10-09T21:18:11.203Z,70.70
2022-10-09T21:21:16.239Z,70.70
2022-10-09T21:24:19.122Z,70.90
2022-10-09T21:27:21.923Z,69.53
2022-10-09T21:30:26.468Z,69.33
2022-10-09T21:33:29.327Z,68.90
2022-10-09T21:36:47.166Z,68.20
2022-10-09T21:39:58.788Z,68.35
2022-10-09T21:43:01.645Z,68.02
2022-10-09T21:46:05.908Z,67.28
2022-10-09T21:49:12.351Z,67.14
2022-10-09T21:52:15.247Z,66.29
2022-10-09T21:55:21.751Z,66.10
2022-10-09T21:58:24.551Z,65.84
2022-10-09T22:01:28.835Z,66.13
2022-10-09T22:04:31.654Z,66.27
2022-10-09T22:07:37.359Z,65.74
2022-10-09T22:10:43.301Z,64.73
2022-10-09T22:13:45.922Z,66.12
2022-10-09T22:16:50.135Z,66.17
2022-10-09T22:19:52.904Z,65.86
2022-10-09T22:22:55.770Z,65.51
2022-10-09T22:26:00.209Z,65.03
2022-10-09T22:29:03.012Z,65.94
2022-10-09T22:32:07.196Z,66.59
2022-10-09T22:35:10.693Z,66.15
2022-10-09T22:38:13.272Z,66.19
2022-10-09T22:41:17.942Z,65.69
2022-10-09T22:44:20.577Z,65.56
2022-10-09T22:47:24.675Z,65.68
2022-10-09T22:50:28.211Z,65.24
2022-10-09T22:53:31.285Z,66.01
2022-10-09T22:56:36.730Z,65.29
2022-10-09T22:59:39.292Z,65.91
2022-10-09T23:02:43.358Z,66.19
2022-10-09T23:05:45.925Z,66.07
2022-10-09T23:08:50.081Z,65.79
2022-10-09T23:11:53.032Z,66.17
2022-10-09T23:14:55.813Z,65.92
2022-10-09T23:17:59.718Z,66.17
2022-10-09T23:21:03.897Z,65.20
2022-10-09T23:24:07.255Z,65.48
2022-10-09T23:27:10.003Z,65.75
2022-10-09T23:30:13.432Z,66.01
2022-10-09T23:33:17.512Z,65.12
2022-10-09T23:36:22.246Z,65.42
2022-10-09T23:39:24.911Z,65.50
2022-10-09T23:42:27.619Z,65.29
2022-10-09T23:45:30.372Z,64.90
2022-10-09T23:48:35.659Z,65.40
2022-10-09T23:51:38.944Z,65.27
2022-10-09T23:54:41.691Z,65.10
2022-10-09T23:57:44.280Z,65.58
